createdAt,value
2022-12-28T00:01:32.879Z,5.94
2022-12-28T00:04:03.356Z,5.96
2022-12-28T00:06:32.610Z,6.00
2022-12-28T00:08:59.391Z,6.01
2022-12-28T00:11:30.964Z,6.01
2022-12-28T00:14:00.656Z,6.04
2022-12-28T00:16:40.296Z,6.05
2022-12-28T00:19:12.996Z,6.09
2022-12-28T00:21:40.311Z,6.14
2022-12-28T00:24:08.190Z,6.17
2022-12-28T00:26:35.743Z,6.18
2022-12-28T00:29:05.276Z,6.20
2022-12-28T00:31:33.902Z,6.15
2022-12-28T00:34:02.172Z,6.20
2022-12-28T00:37:10.916Z,6.22
2022-12-28T00:39:15.732Z,6.22
2022-12-28T00:41:42.555Z,6.23
2022-12-28T00:44:10.918Z,6.27
2022-12-28T00:46:37.822Z,6.29
2022-12-28T00:49:04.594Z,6.33
2022-12-28T00:51:33.200Z,6.35
2022-12-28T00:54:00.215Z,6.36
2022-12-28T00:56:27.129Z,6.38
2022-12-28T00:58:59.299Z,6.40
2022-12-28T01:01:27.840Z,6.43
2022-12-28T01:03:58.838Z,6.44
2022-12-28T01:06:27.198Z,6.48
2022-12-28T01:08:54.733Z,6.52
2022-12-28T01:11:26.294Z,6.54
2022-12-28T01:13:56.191Z,6.61
2022-12-28T01:16:26.560Z,6.65
2022-12-28T01:18:58.806Z,6.70
2022-12-28T01:21:29.587Z,6.73
2022-12-28T01:24:02.012Z,6.78
2022-12-28T01:26:31.486Z,6.84
2022-12-28T01:28:58.695Z,6.86
2022-12-28T01:31:25.796Z,6.89
2022-12-28T01:33:53.403Z,6.90
2022-12-28T01:36:27.024Z,6.91
2022-12-28T01:39:00.385Z,6.94
2022-12-28T01:41:29.002Z,6.98
2022-12-28T01:43:55.684Z,7.02
2022-12-28T01:46:37.221Z,7.02
2022-12-28T01:49:27.537Z,7.07
2022-12-28T01:52:00.067Z,7.12
2022-12-28T01:54:31.173Z,7.16
2022-12-28T01:56:58.427Z,7.21
2022-12-28T01:59:31.310Z,7.23
2022-12-28T02:01:58.668Z,7.30
2022-12-28T02:04:26.913Z,7.35
2022-12-28T02:06:55.137Z,7.40
2022-12-28T02:09:30.071Z,7.45
2022-12-28T02:11:58.812Z,7.52
2022-12-28T02:14:26.602Z,7.58
2022-12-28T02:16:55.216Z,7.61
2022-12-28T02:19:37.348Z,7.64
2022-12-28T02:22:35.150Z,7.66
2022-12-28T02:25:31.077Z,7.70
2022-12-28T02:28:38.917Z,7.71
2022-12-28T02:31:13.204Z,7.76
2022-12-28T02:33:59.334Z,7.76
2022-12-28T02:36:34.860Z,7.82
2022-12-28T02:39:09.606Z,7.84
2022-12-28T02:41:38.703Z,7.86
2022-12-28T02:44:05.576Z,7.88
2022-12-28T02:46:52.681Z,7.88
2022-12-28T02:49:45.991Z,7.87
2022-12-28T02:52:55.408Z,7.87
2022-12-28T02:56:08.557Z,7.87
2022-12-28T02:59:23.608Z,7.84
2022-12-28T03:02:04.597Z,7.87
2022-12-28T03:04:51.382Z,7.87
2022-12-28T03:08:00.516Z,7.89
2022-12-28T03:10:51.812Z,7.91
2022-12-28T03:13:54.285Z,7.95
2022-12-28T03:17:00.465Z,7.97
2022-12-28T03:20:00.056Z,8.00
2022-12-28T03:22:48.876Z,8.03
2022-12-28T03:25:40.945Z,8.06
2022-12-28T03:28:32.594Z,8.07
2022-12-28T03:31:08.263Z,8.12
2022-12-28T03:33:45.620Z,8.14
2022-12-28T03:36:48.597Z,8.12
2022-12-28T03:39:32.265Z,8.13
2022-12-28T03:42:43.702Z,8.09
2022-12-28T03:45:44.844Z,8.06
2022-12-28T03:48:15.013Z,8.06
2022-12-28T03:50:45.657Z,8.07
2022-12-28T03:53:17.148Z,8.07
2022-12-28T03:55:44.476Z,8.02
2022-12-28T03:58:11.674Z,8.10
2022-12-28T04:00:38.580Z,8.11
2022-12-28T04:03:06.653Z,8.13
2022-12-28T04:05:34.953Z,8.15
2022-12-28T04:08:01.855Z,8.17
2022-12-28T04:10:28.731Z,8.18
2022-12-28T04:12:56.901Z,8.20
2022-12-28T04:15:29.189Z,8.25
2022-12-28T04:17:55.960Z,8.27
2022-12-28T04:20:24.591Z,8.28
2022-12-28T04:22:51.432Z,8.31
2022-12-28T04:25:18.637Z,8.34
2022-12-28T04:27:45.440Z,8.37
2022-12-28T04:30:32.287Z,8.40
2022-12-28T04:32:59.150Z,8.45
2022-12-28T04:35:25.905Z,8.48
2022-12-28T04:37:54.209Z,8.52
2022-12-28T04:40:20.978Z,8.56
2022-12-28T04:42:47.754Z,8.56
2022-12-28T04:45:19.933Z,8.58
2022-12-28T04:47:48.709Z,8.59
2022-12-28T04:50:15.504Z,8.61
2022-12-28T04:52:43.483Z,8.62
2022-12-28T04:55:32.785Z,8.64
2022-12-28T04:57:58.286Z,8.64
2022-12-28T05:00:25.114Z,8.63
2022-12-28T05:02:51.965Z,8.65
2022-12-28T05:05:18.814Z,8.67
2022-12-28T05:07:45.604Z,8.68
2022-12-28T05:10:12.388Z,8.69
2022-12-28T05:12:39.187Z,8.70
2022-12-28T05:15:07.050Z,8.72
2022-12-28T05:17:33.959Z,8.77
2022-12-28T05:20:00.716Z,8.80
2022-12-28T05:22:27.541Z,8.83
2022-12-28T05:24:54.417Z,8.86
2022-12-28T05:27:21.375Z,8.88
2022-12-28T05:29:48.296Z,8.92
2022-12-28T05:32:15.100Z,8.95
2022-12-28T05:34:42.246Z,8.99
2022-12-28T05:37:09.372Z,9.01
2022-12-28T05:39:36.145Z,9.03
2022-12-28T05:42:03.506Z,9.04
2022-12-28T05:44:30.722Z,9.06
2022-12-28T05:46:57.549Z,9.07
2022-12-28T05:49:24.363Z,9.07
2022-12-28T05:51:54.413Z,9.08
2022-12-28T05:54:21.360Z,9.08
2022-12-28T05:56:51.953Z,9.06
2022-12-28T05:59:18.797Z,9.06
2022-12-28T06:01:45.976Z,9.05
2022-12-28T06:04:18.877Z,9.00
2022-12-28T06:06:47.769Z,9.00
2022-12-28T06:09:15.187Z,8.97
2022-12-28T06:11:42.163Z,8.96
2022-12-28T06:14:08.972Z,8.93
2022-12-28T06:16:41.910Z,8.89
2022-12-28T06:19:11.852Z,8.88
2022-12-28T06:21:40.244Z,8.86
2022-12-28T06:24:08.320Z,8.84
2022-12-28T06:26:37.457Z,8.82
2022-12-28T06:29:04.892Z,8.81
2022-12-28T06:31:35.337Z,8.80
2022-12-28T06:34:05.228Z,8.80
2022-12-28T06:36:37.689Z,8.75
2022-12-28T06:39:08.463Z,8.79
2022-12-28T06:41:36.097Z,8.80
2022-12-28T06:44:07.360Z,8.79
2022-12-28T06:46:35.126Z,8.80
2022-12-28T06:49:02.290Z,8.82
2022-12-28T06:51:31.991Z,8.82
2022-12-28T06:53:58.980Z,8.82
2022-12-28T06:56:29.301Z,8.84
2022-12-28T06:59:02.525Z,8.86
2022-12-28T07:01:40.465Z,8.86
2022-12-28T07:04:09.711Z,8.88
2022-12-28T07:06:42.872Z,8.87
2022-12-28T07:09:13.931Z,8.88
2022-12-28T07:11:41.930Z,8.89
2022-12-28T07:14:08.861Z,8.89
2022-12-28T07:19:01.860Z,8.91
2022-12-28T07:21:35.016Z,8.89
2022-12-28T07:24:02.611Z,8.90
2022-12-28T07:26:33.445Z,8.90
2022-12-28T07:29:03.726Z,8.90
2022-12-28T07:31:44.265Z,8.89
2022-12-28T07:34:14.292Z,8.92
2022-12-28T07:36:41.064Z,8.93
2022-12-28T07:39:07.931Z,8.94
2022-12-28T07:41:36.198Z,8.96
2022-12-28T07:44:05.502Z,8.99
2022-12-28T07:46:35.452Z,8.99
2022-12-28T07:49:02.470Z,9.02
2022-12-28T07:51:32.072Z,9.02
2022-12-28T07:53:59.783Z,9.05
2022-12-28T07:56:28.415Z,9.06
2022-12-28T07:58:59.804Z,9.09
2022-12-28T08:01:30.302Z,9.11
2022-12-28T08:04:00.486Z,9.13
2022-12-28T08:06:28.931Z,9.15
2022-12-28T08:08:59.707Z,9.18
2022-12-28T08:11:30.835Z,9.20
2022-12-28T08:13:59.090Z,9.21
2022-12-28T08:16:28.999Z,9.23
2022-12-28T08:18:55.754Z,9.18
2022-12-28T08:21:34.139Z,9.21
2022-12-28T08:24:02.136Z,9.26
2022-12-28T08:26:36.806Z,9.26
2022-12-28T08:29:09.845Z,9.30
2022-12-28T08:31:40.226Z,9.34
2022-12-28T08:34:13.433Z,9.35
2022-12-28T08:36:40.362Z,9.42
2022-12-28T08:39:07.595Z,9.46
2022-12-28T08:41:34.754Z,9.49
2022-12-28T08:44:01.624Z,9.52
2022-12-28T08:46:34.468Z,9.53
2022-12-28T08:49:02.380Z,9.57
2022-12-28T08:51:41.539Z,9.57
2022-12-28T08:54:10.775Z,9.61
2022-12-28T08:56:39.719Z,9.62
2022-12-28T08:59:07.347Z,9.65
2022-12-28T09:01:44.041Z,9.65
2022-12-28T09:04:18.072Z,9.68
2022-12-28T09:06:45.010Z,9.73
2022-12-28T09:09:15.149Z,9.75
2022-12-28T09:11:42.855Z,9.79
2022-12-28T09:14:20.368Z,9.83
2022-12-28T09:16:49.787Z,9.87
2022-12-28T09:19:16.705Z,9.90
2022-12-28T09:21:45.046Z,9.93
2022-12-28T09:24:13.445Z,9.96
2022-12-28T09:26:40.408Z,10.00
2022-12-28T09:29:11.674Z,10.00
2022-12-28T09:31:40.455Z,10.05
2022-12-28T09:36:58.083Z,10.12
2022-12-28T09:39:25.243Z,10.15
2022-12-28T09:42:08.990Z,10.16
2022-12-28T09:45:03.340Z,10.17
2022-12-28T09:47:45.812Z,10.21
2022-12-28T09:50:18.707Z,10.25
2022-12-28T09:53:23.242Z,10.27
2022-12-28T09:56:47.725Z,10.30
2022-12-28T09:59:22.674Z,10.37
2022-12-28T10:01:56.564Z,10.43
2022-12-28T10:04:23.966Z,10.50
2022-12-28T10:06:50.922Z,10.55
2022-12-28T10:09:31.271Z,10.55
2022-12-28T10:12:01.074Z,10.63
2022-12-28T10:14:33.356Z,10.70
2022-12-28T10:17:01.196Z,10.80
2022-12-28T10:19:29.517Z,10.87
2022-12-28T10:22:07.490Z,10.92
2022-12-28T10:24:34.883Z,11.01
2022-12-28T10:27:06.125Z,11.07
2022-12-28T10:29:33.995Z,11.17
2022-12-28T10:32:12.571Z,11.26
2022-12-28T10:34:55.330Z,11.32
2022-12-28T10:37:23.837Z,11.43
2022-12-28T10:40:01.023Z,11.49
2022-12-28T10:42:40.918Z,11.56
2022-12-28T10:45:18.929Z,11.63
2022-12-28T10:47:55.439Z,11.72
2022-12-28T10:50:54.025Z,11.75
2022-12-28T10:53:33.363Z,11.83
2022-12-28T10:56:20.985Z,11.87
2022-12-28T10:58:51.567Z,11.94
2022-12-28T11:01:30.345Z,11.96
2022-12-28T11:04:03.257Z,12.01
2022-12-28T11:06:36.167Z,12.05
2022-12-28T11:09:24.805Z,12.07
2022-12-28T11:11:54.893Z,12.15
2022-12-28T11:14:36.579Z,12.19
2022-12-28T11:17:28.685Z,12.25
2022-12-28T11:20:27.923Z,12.32
2022-12-28T11:22:55.284Z,12.40
2022-12-28T11:25:30.251Z,12.40
2022-12-28T11:27:58.266Z,12.48
2022-12-28T11:30:25.514Z,12.52
2022-12-28T11:32:59.247Z,12.54
2022-12-28T11:35:33.756Z,12.57
2022-12-28T11:38:05.408Z,12.61
2022-12-28T11:40:44.069Z,12.61
2022-12-28T11:43:29.204Z,12.60
2022-12-28T11:46:27.777Z,12.61
2022-12-28T11:48:54.429Z,12.65
2022-12-28T11:51:32.716Z,12.63
2022-12-28T11:54:37.250Z,12.60
2022-12-28T11:57:04.284Z,12.64
2022-12-28T11:59:36.533Z,12.62
2022-12-28T12:02:41.346Z,12.58
2022-12-28T12:05:50.546Z,12.57
2022-12-28T12:08:17.198Z,12.62
2022-12-28T12:10:49.051Z,12.59
2022-12-28T12:13:25.119Z,12.57
2022-12-28T12:16:01.626Z,12.57
2022-12-28T12:18:30.580Z,12.56
2022-12-28T12:21:15.064Z,12.53
2022-12-28T12:23:46.830Z,12.55
2022-12-28T12:26:22.271Z,12.56
2022-12-28T12:28:52.890Z,12.58
2022-12-28T12:31:31.182Z,12.60
2022-12-28T12:34:07.553Z,12.64
2022-12-28T12:36:44.083Z,12.69
2022-12-28T12:39:59.911Z,12.69
2022-12-28T12:42:53.745Z,12.75
2022-12-28T12:45:46.735Z,12.76
2022-12-28T12:48:48.029Z,12.78
2022-12-28T12:51:34.574Z,12.84
2022-12-28T12:55:02.026Z,12.91
2022-12-28T12:57:52.889Z,13.04
2022-12-28T13:00:22.372Z,13.14
2022-12-28T13:03:19.184Z,13.12
2022-12-28T13:05:52.962Z,13.14
2022-12-28T13:08:25.534Z,13.15
2022-12-28T13:10:54.350Z,13.13
2022-12-28T13:13:37.979Z,13.05
2022-12-28T13:16:15.957Z,12.99
2022-12-28T13:18:58.504Z,12.91
2022-12-28T13:21:29.342Z,12.89
2022-12-28T13:23:56.631Z,12.87
2022-12-28T13:26:28.511Z,12.82
2022-12-28T13:29:08.864Z,12.80
2022-12-28T13:31:39.099Z,12.82
2022-12-28T13:34:19.428Z,12.80
2022-12-28T13:37:01.460Z,12.77
2022-12-28T13:39:35.322Z,12.79
2022-12-28T13:42:33.646Z,12.75
2022-12-28T13:45:04.055Z,12.76
2022-12-28T13:47:39.121Z,12.75
2022-12-28T13:50:29.593Z,12.73
2022-12-28T13:53:01.610Z,12.72
2022-12-28T13:55:46.049Z,12.67
2022-12-28T13:58:27.835Z,12.67
2022-12-28T14:00:58.089Z,12.65
2022-12-28T14:03:25.225Z,12.64
2022-12-28T14:05:59.876Z,12.62
2022-12-28T14:08:29.512Z,12.60
2022-12-28T14:10:56.653Z,12.60
2022-12-28T14:13:24.168Z,12.59
2022-12-28T14:15:51.769Z,12.59
2022-12-28T14:18:19.169Z,12.59
2022-12-28T14:20:52.530Z,12.57
2022-12-28T14:23:31.595Z,12.56
2022-12-28T14:26:02.010Z,12.57
2022-12-28T14:28:46.839Z,12.54
2022-12-28T14:31:22.594Z,12.54
2022-12-28T14:34:04.859Z,12.51
2022-12-28T14:36:41.889Z,12.50
2022-12-28T14:39:31.128Z,12.48
2022-12-28T14:41:59.492Z,12.50
2022-12-28T14:44:40.028Z,12.50
2022-12-28T14:47:55.313Z,12.48
2022-12-28T14:50:27.809Z,12.53
2022-12-28T14:53:19.689Z,12.52
2022-12-28T14:55:52.695Z,12.55
2022-12-28T14:58:25.688Z,12.56
2022-12-28T15:01:03.899Z,12.56
2022-12-28T15:03:30.740Z,12.59
2022-12-28T15:05:59.375Z,12.59
2022-12-28T15:08:29.751Z,12.60
2022-12-28T15:11:00.335Z,12.59
2022-12-28T15:13:27.663Z,12.63
2022-12-28T15:16:00.381Z,12.60
2022-12-28T15:18:29.246Z,12.57
2022-12-28T15:20:56.852Z,12.54
2022-12-28T15:23:23.906Z,12.49
2022-12-28T15:25:51.126Z,12.43
2022-12-28T15:28:17.911Z,12.39
2022-12-28T15:30:44.901Z,12.35
2022-12-28T15:33:12.277Z,12.28
2022-12-28T15:35:39.156Z,12.25
2022-12-28T15:38:05.944Z,12.21
2022-12-28T15:40:32.917Z,12.18
2022-12-28T15:42:59.678Z,12.16
2022-12-28T15:45:26.531Z,12.16
2022-12-28T15:47:54.318Z,12.14
2022-12-28T15:50:21.602Z,12.11
2022-12-28T15:52:48.601Z,12.10
2022-12-28T15:55:15.597Z,12.07
2022-12-28T15:57:44.621Z,12.03
2022-12-28T16:00:18.569Z,11.97
2022-12-28T16:02:46.291Z,11.97
2022-12-28T16:05:13.587Z,11.96
2022-12-28T16:07:40.336Z,11.94
2022-12-28T16:10:07.617Z,11.93
2022-12-28T16:12:34.593Z,11.92
2022-12-28T16:15:01.379Z,11.91
2022-12-28T16:17:28.157Z,11.90
2022-12-28T16:19:54.911Z,11.92
2022-12-28T16:22:21.704Z,11.93
2022-12-28T16:24:48.859Z,11.93
2022-12-28T16:27:15.822Z,11.94
2022-12-28T16:29:45.714Z,11.94
2022-12-28T16:32:12.536Z,11.87
2022-12-28T16:34:39.366Z,11.90
2022-12-28T16:37:06.213Z,11.88
2022-12-28T16:39:34.610Z,11.84
2022-12-28T16:42:01.385Z,11.83
2022-12-28T16:44:29.249Z,11.80
2022-12-28T16:47:00.826Z,11.77
2022-12-28T16:49:28.300Z,11.77
2022-12-28T16:51:55.361Z,11.76
2022-12-28T16:54:25.683Z,11.75
2022-12-28T16:56:53.375Z,11.77
2022-12-28T16:59:28.230Z,11.76
2022-12-28T17:01:56.701Z,11.79
2022-12-28T17:04:23.957Z,11.81
2022-12-28T17:06:52.257Z,11.81
2022-12-28T17:09:19.792Z,11.82
2022-12-28T17:11:48.626Z,11.80
2022-12-28T17:14:29.223Z,11.80
2022-12-28T17:17:02.524Z,11.79
2022-12-28T17:19:29.387Z,11.78
2022-12-28T17:21:56.174Z,11.75
2022-12-28T17:24:22.977Z,11.74
2022-12-28T17:26:49.962Z,11.72
2022-12-28T17:29:16.717Z,11.68
2022-12-28T17:31:44.076Z,11.67
2022-12-28T17:34:11.225Z,11.66
2022-12-28T17:36:38.015Z,11.65
2022-12-28T17:39:05.023Z,11.64
2022-12-28T17:41:32.074Z,11.65
2022-12-28T17:44:00.392Z,11.63
2022-12-28T17:46:29.600Z,11.62
2022-12-28T17:48:58.339Z,11.62
2022-12-28T17:51:26.509Z,11.60
2022-12-28T17:53:55.844Z,11.58
2022-12-28T17:56:22.673Z,11.57
2022-12-28T17:58:58.308Z,11.53
2022-12-28T18:01:26.534Z,11.52
2022-12-28T18:03:53.997Z,11.50
2022-12-28T18:06:20.855Z,11.46
2022-12-28T18:08:47.755Z,11.42
2022-12-28T18:11:15.239Z,11.40
2022-12-28T18:13:43.821Z,11.38
2022-12-28T18:16:14.842Z,11.35
2022-12-28T18:18:42.536Z,11.36
2022-12-28T18:21:20.786Z,11.33
2022-12-28T18:23:50.666Z,11.33
2022-12-28T18:26:21.465Z,11.30
2022-12-28T18:28:48.640Z,11.30
2022-12-28T18:31:15.803Z,11.28
2022-12-28T18:33:43.023Z,11.25
2022-12-28T18:36:17.064Z,11.22
2022-12-28T18:38:46.110Z,11.19
2022-12-28T18:41:15.948Z,11.14
2022-12-28T18:43:42.964Z,11.11
2022-12-28T18:46:10.638Z,11.07
2022-12-28T18:48:39.951Z,11.02
2022-12-28T18:51:12.475Z,10.99
2022-12-28T18:53:40.015Z,10.97
2022-12-28T18:56:11.202Z,10.92
2022-12-28T18:58:40.189Z,10.91
2022-12-28T19:01:32.511Z,10.87
2022-12-28T19:04:00.602Z,10.86
2022-12-28T19:06:27.786Z,10.86
2022-12-28T19:08:59.986Z,10.83
2022-12-28T19:11:27.635Z,10.85
2022-12-28T19:13:54.504Z,10.86
2022-12-28T19:16:24.570Z,10.87
2022-12-28T19:18:57.251Z,10.86
2022-12-28T19:21:39.474Z,10.84
2022-12-28T19:24:18.728Z,10.86
2022-12-28T19:26:46.940Z,10.90
2022-12-28T19:29:15.945Z,10.92
2022-12-28T19:31:43.331Z,10.94
2022-12-28T19:34:10.265Z,10.95
2022-12-28T19:36:37.109Z,10.95
2022-12-28T19:39:03.901Z,10.94
2022-12-28T19:41:30.726Z,10.94
2022-12-28T19:43:57.496Z,10.93
2022-12-28T19:46:31.130Z,10.92
2022-12-28T19:49:03.824Z,10.89
2022-12-28T19:51:32.461Z,10.89
2022-12-28T19:54:00.887Z,10.87
2022-12-28T19:56:27.977Z,10.87
2022-12-28T19:59:01.193Z,10.85
2022-12-28T20:01:32.277Z,10.82
2022-12-28T20:03:59.927Z,10.82
2022-12-28T20:06:29.173Z,10.81
2022-12-28T20:08:59.714Z,10.80
2022-12-28T20:11:27.958Z,10.83
2022-12-28T20:14:01.453Z,10.82
2022-12-28T20:16:32.230Z,10.83
2022-12-28T20:19:01.358Z,10.86
2022-12-28T20:21:28.203Z,10.86
2022-12-28T20:23:55.164Z,10.86
2022-12-28T20:26:24.546Z,10.87
2022-12-28T20:28:51.710Z,10.88
2022-12-28T20:31:18.883Z,10.89
2022-12-28T20:33:46.402Z,10.92
2022-12-28T20:36:15.458Z,10.94
2022-12-28T20:38:42.446Z,10.96
2022-12-28T20:41:50.325Z,10.97
2022-12-28T20:44:25.946Z,10.98
2022-12-28T20:46:53.460Z,11.04
2022-12-28T20:49:21.184Z,11.08
2022-12-28T20:51:49.242Z,11.13
2022-12-28T20:54:16.157Z,11.17
2022-12-28T20:56:43.854Z,11.21
2022-12-28T20:59:13.963Z,11.24
2022-12-28T21:01:41.371Z,11.27
2022-12-28T21:04:09.921Z,11.31
2022-12-28T21:06:36.861Z,11.35
2022-12-28T21:09:04.450Z,11.40
2022-12-28T21:11:33.027Z,11.42
2022-12-28T21:14:00.290Z,11.47
2022-12-28T21:16:27.441Z,11.50
2022-12-28T21:18:54.302Z,11.55
2022-12-28T21:21:21.974Z,11.60
2022-12-28T21:23:48.985Z,11.62
2022-12-28T21:26:18.034Z,11.64
2022-12-28T21:28:45.527Z,11.67
2022-12-28T21:31:13.075Z,11.73
2022-12-28T21:33:40.539Z,11.75
2022-12-28T21:36:16.841Z,11.76
2022-12-28T21:38:46.037Z,11.81
2022-12-28T21:41:37.736Z,11.83
2022-12-28T21:44:11.071Z,11.86
2022-12-28T21:46:38.287Z,11.91
2022-12-28T21:49:06.157Z,11.95
2022-12-28T21:51:37.191Z,11.99
2022-12-28T21:54:15.578Z,12.03
2022-12-28T21:56:45.694Z,12.06
2022-12-28T21:59:13.344Z,12.07
2022-12-28T22:02:00.364Z,12.07
2022-12-28T22:04:46.508Z,12.06
2022-12-28T22:07:16.889Z,12.00
2022-12-28T22:10:02.432Z,12.03
2022-12-28T22:12:35.130Z,12.02
2022-12-28T22:15:34.052Z,11.97
2022-12-28T22:19:00.376Z,11.95
2022-12-28T22:21:09.673Z,12.03
2022-12-28T22:23:36.499Z,12.08
2022-12-28T22:26:03.569Z,12.13
2022-12-28T22:28:30.431Z,12.17
2022-12-28T22:30:57.462Z,12.25
2022-12-28T22:33:24.284Z,12.29
2022-12-28T22:35:51.044Z,12.33
2022-12-28T22:38:17.806Z,12.40
2022-12-28T22:40:56.885Z,12.42
2022-12-28T22:43:23.741Z,12.52
2022-12-28T22:45:50.687Z,12.59
2022-12-28T22:48:17.784Z,12.65
2022-12-28T22:50:44.805Z,12.71
2022-12-28T22:53:11.639Z,12.77
2022-12-28T22:55:38.420Z,12.83
2022-12-28T22:58:05.197Z,12.88
2022-12-28T23:00:31.970Z,12.93
2022-12-28T23:02:58.776Z,12.97
2022-12-28T23:05:25.576Z,13.00
2022-12-28T23:07:52.560Z,13.03
2022-12-28T23:10:19.379Z,13.05
2022-12-28T23:12:46.172Z,13.07
2022-12-28T23:15:16.014Z,13.09
2022-12-28T23:17:42.855Z,13.09
2022-12-28T23:20:30.139Z,13.10
2022-12-28T23:23:15.874Z,13.12
2022-12-28T23:26:01.557Z,13.12
2022-12-28T23:28:28.482Z,13.12
2022-12-28T23:30:56.877Z,13.12
2022-12-28T23:33:23.833Z,13.14
2022-12-28T23:35:50.736Z,13.15
2022-12-28T23:38:17.680Z,13.16
2022-12-28T23:40:44.548Z,13.19
2022-12-28T23:43:11.336Z,13.22
2022-12-28T23:45:38.374Z,13.23
2022-12-28T23:48:05.397Z,13.26
2022-12-28T23:50:32.566Z,13.28
2022-12-28T23:52:59.367Z,13.29
2022-12-28T23:55:26.176Z,13.31
2022-12-28T23:57:52.946Z,13.31
